createdAt,value
2022-11-24T00:00:33.394Z,23.10
2022-11-24T00:05:38.429Z,23.10
2022-11-24T00:10:42.821Z,23.00
2022-11-24T00:15:45.820Z,23.00
2022-11-24T00:20:53.262Z,22.90
2022-11-24T00:26:03.837Z,22.90
2022-11-24T00:31:17.219Z,22.80
2022-11-24T00:36:22.043Z,22.70
2022-11-24T00:41:27.934Z,22.70
2022-11-24T00:46:31.191Z,22.60
2022-11-24T00:51:34.786Z,22.60
2022-11-24T00:56:39.221Z,22.50
2022-11-24T01:01:42.690Z,22.50
2022-11-24T01:06:45.806Z,22.40
2022-11-24T01:12:05.142Z,22.40
2022-11-24T01:17:08.136Z,22.40
2022-11-24T01:22:11.108Z,22.30
2022-11-24T01:27:15.690Z,22.30
2022-11-24T01:32:18.643Z,22.30
2022-11-24T01:37:21.680Z,22.20
2022-11-24T01:42:26.175Z,22.20
2022-11-24T01:47:35.226Z,22.20
2022-11-24T01:52:41.698Z,22.10
2022-11-24T01:57:49.318Z,22.10
2022-11-24T02:02:53.103Z,22.10
2022-11-24T02:07:58.822Z,22.00
2022-11-24T02:13:03.715Z,22.00
2022-11-24T02:18:06.898Z,22.00
2022-11-24T02:23:18.301Z,22.00
2022-11-24T02:28:24.927Z,21.90
2022-11-24T02:33:28.355Z,21.80
2022-11-24T02:38:32.423Z,21.80
2022-11-24T02:43:43.522Z,21.80
2022-11-24T02:48:46.548Z,21.80
2022-11-24T02:53:49.545Z,21.70
2022-11-24T02:58:53.897Z,21.70
2022-11-24T03:03:56.914Z,21.60
2022-11-24T03:09:00.090Z,21.60
2022-11-24T03:14:04.794Z,21.60
2022-11-24T03:19:07.765Z,21.50
2022-11-24T03:24:10.854Z,21.50
2022-11-24T03:29:15.200Z,21.40
2022-11-24T03:34:18.308Z,21.40
2022-11-24T03:39:21.361Z,21.40
2022-11-24T03:44:25.762Z,21.30
2022-11-24T03:49:28.908Z,21.30
2022-11-24T03:54:32.166Z,21.20
2022-11-24T03:59:36.855Z,21.20
2022-11-24T04:04:39.976Z,21.20
2022-11-24T04:09:42.969Z,21.10
2022-11-24T04:14:47.352Z,21.10
2022-11-24T04:19:50.296Z,21.00
2022-11-24T04:24:53.268Z,21.00
2022-11-24T04:29:57.675Z,21.00
2022-11-24T04:35:00.667Z,21.00
2022-11-24T04:40:03.832Z,21.00
2022-11-24T04:45:09.657Z,20.90
2022-11-24T04:50:12.623Z,20.90
2022-11-24T04:55:15.651Z,20.90
2022-11-24T05:00:21.566Z,20.90
2022-11-24T05:05:24.525Z,20.80
2022-11-24T05:10:36.720Z,20.80
2022-11-24T05:15:42.730Z,20.80
2022-11-24T05:20:45.862Z,20.80
2022-11-24T05:25:48.945Z,20.70
2022-11-24T05:30:53.309Z,20.70
2022-11-24T05:35:56.611Z,20.70
2022-11-24T05:41:02.573Z,20.70
2022-11-24T05:46:07.174Z,20.60
2022-11-24T05:51:10.274Z,20.70
2022-11-24T05:56:13.292Z,20.60
2022-11-24T06:01:17.664Z,20.60
2022-11-24T06:06:20.766Z,20.60
2022-11-24T06:11:23.842Z,20.60
2022-11-24T06:16:28.284Z,20.60
2022-11-24T06:21:31.864Z,20.60
2022-11-24T06:26:35.078Z,20.60
2022-11-24T06:31:39.568Z,20.50
2022-11-24T06:36:42.663Z,20.50
2022-11-24T06:41:45.705Z,20.50
2022-11-24T06:46:50.216Z,20.50
2022-11-24T06:51:56.033Z,20.50
2022-11-24T06:56:59.450Z,20.50
2022-11-24T07:02:03.862Z,20.50
2022-11-24T07:07:06.994Z,20.50
2022-11-24T07:12:10.065Z,20.40
2022-11-24T07:17:14.428Z,20.40
2022-11-24T07:22:17.371Z,20.50
2022-11-24T07:27:20.419Z,20.40
2022-11-24T07:32:24.767Z,20.40
2022-11-24T07:37:31.646Z,20.40
2022-11-24T07:42:35.121Z,20.40
2022-11-24T07:47:42.026Z,20.30
2022-11-24T07:52:45.053Z,20.30
2022-11-24T07:57:48.040Z,20.30
2022-11-24T08:02:52.453Z,20.30
2022-11-24T08:07:55.484Z,20.30
2022-11-24T08:13:01.597Z,20.30
2022-11-24T08:18:06.605Z,20.30
2022-11-24T08:23:09.999Z,20.30
2022-11-24T08:28:13.018Z,20.30
2022-11-24T08:33:17.460Z,20.30
2022-11-24T08:38:20.409Z,20.20
2022-11-24T08:43:23.531Z,20.20
2022-11-24T08:48:28.018Z,20.20
2022-11-24T08:53:31.035Z,20.20
2022-11-24T08:58:34.587Z,20.20
2022-11-24T09:03:42.317Z,20.20
2022-11-24T09:08:49.640Z,20.20
2022-11-24T09:13:52.757Z,20.20
2022-11-24T09:18:57.822Z,20.10
2022-11-24T09:24:01.077Z,20.10
2022-11-24T09:29:05.450Z,20.10
2022-11-24T09:34:14.105Z,20.10
2022-11-24T09:39:17.108Z,20.10
2022-11-24T09:44:56.313Z,20.10
2022-11-24T09:50:04.255Z,20.10
2022-11-24T09:55:23.691Z,20.00
2022-11-24T10:00:26.759Z,20.00
2022-11-24T10:05:35.123Z,19.90
2022-11-24T10:10:49.927Z,20.00
2022-11-24T10:16:01.940Z,20.10
2022-11-24T10:21:23.829Z,20.10
2022-11-24T10:26:36.014Z,20.10
2022-11-24T10:31:42.318Z,20.10
2022-11-24T10:36:53.050Z,20.10
2022-11-24T10:42:02.619Z,20.10
2022-11-24T10:47:05.819Z,20.20
2022-11-24T10:52:15.211Z,20.20
2022-11-24T10:57:29.048Z,20.10
2022-11-24T11:02:36.656Z,20.10
2022-11-24T11:07:41.076Z,20.10
2022-11-24T11:12:45.209Z,20.10
2022-11-24T11:17:52.259Z,20.10
2022-11-24T11:22:58.842Z,20.10
2022-11-24T11:28:27.711Z,20.10
2022-11-24T11:38:57.095Z,20.00
2022-11-24T11:44:12.356Z,20.00
2022-11-24T11:49:15.522Z,20.00
2022-11-24T11:54:31.642Z,20.00
2022-11-24T11:59:55.032Z,20.00
2022-11-24T12:05:01.800Z,20.00
2022-11-24T12:10:14.387Z,20.00
2022-11-24T12:15:23.906Z,20.00
2022-11-24T12:20:49.424Z,20.00
2022-11-24T12:26:00.324Z,20.00
2022-11-24T12:31:07.253Z,20.00
2022-11-24T12:36:23.803Z,20.00
2022-11-24T12:41:42.603Z,20.00
2022-11-24T12:46:54.786Z,20.00
2022-11-24T12:52:04.127Z,19.90
2022-11-24T12:57:15.976Z,20.00
2022-11-24T13:02:29.700Z,20.00
2022-11-24T13:07:43.940Z,20.00
2022-11-24T13:12:59.020Z,20.00
2022-11-24T13:18:10.421Z,20.00
2022-11-24T13:23:26.474Z,20.00
2022-11-24T13:29:06.071Z,20.00
2022-11-24T13:34:54.625Z,19.90
2022-11-24T13:39:59.524Z,20.00
2022-11-24T13:45:04.956Z,19.90
2022-11-24T13:50:10.501Z,19.90
2022-11-24T13:55:23.622Z,19.90
2022-11-24T14:00:30.779Z,19.90
2022-11-24T14:05:39.880Z,19.90
2022-11-24T14:10:43.735Z,19.90
2022-11-24T14:16:00.514Z,19.90
2022-11-24T14:21:22.874Z,19.90
2022-11-24T14:26:32.258Z,19.90
2022-11-24T14:31:37.072Z,19.80
2022-11-24T14:36:40.454Z,19.80
2022-11-24T14:41:50.695Z,19.80
2022-11-24T14:47:04.762Z,19.80
2022-11-24T14:52:14.445Z,19.80
2022-11-24T14:57:27.139Z,20.00
2022-11-24T15:02:47.395Z,20.20
2022-11-24T15:07:52.965Z,20.30
2022-11-24T15:12:58.706Z,20.30
2022-11-24T15:18:04.401Z,20.40
2022-11-24T15:23:24.272Z,20.30
2022-11-24T15:28:27.293Z,20.40
2022-11-24T15:33:32.700Z,20.40
2022-11-24T15:38:35.705Z,20.40
2022-11-24T15:43:41.033Z,20.60
2022-11-24T15:48:45.405Z,20.70
2022-11-24T15:53:54.538Z,20.80
2022-11-24T15:59:02.479Z,20.90
2022-11-24T16:04:07.719Z,20.90
2022-11-24T16:09:15.588Z,20.80
2022-11-24T16:14:18.738Z,20.90
2022-11-24T16:19:23.321Z,21.10
2022-11-24T16:24:26.375Z,21.20
2022-11-24T16:29:32.842Z,21.70
2022-11-24T16:34:39.697Z,22.20
2022-11-24T16:39:48.433Z,22.80
2022-11-24T16:44:53.045Z,23.30
2022-11-24T16:49:57.474Z,23.80
2022-11-24T16:55:00.437Z,24.00
2022-11-24T17:00:03.862Z,24.20
2022-11-24T17:05:09.596Z,24.30
2022-11-24T17:10:12.664Z,24.30
2022-11-24T17:15:32.535Z,24.30
2022-11-24T17:20:38.122Z,24.20
2022-11-24T17:25:41.115Z,24.10
2022-11-24T17:30:44.131Z,24.10
2022-11-24T17:35:48.510Z,24.10
2022-11-24T17:40:52.264Z,24.00
2022-11-24T17:45:55.935Z,24.00
2022-11-24T17:51:05.342Z,23.90
2022-11-24T17:56:12.902Z,23.90
2022-11-24T18:01:16.383Z,23.80
2022-11-24T18:06:20.782Z,23.80
2022-11-24T18:11:30.632Z,23.70
2022-11-24T18:16:35.528Z,23.70
2022-11-24T18:21:41.021Z,23.80
2022-11-24T18:26:44.803Z,23.80
2022-11-24T18:31:47.813Z,23.90
2022-11-24T18:36:52.682Z,23.90
2022-11-24T18:41:55.697Z,23.90
2022-11-24T18:46:58.768Z,24.00
2022-11-24T18:52:03.224Z,23.90
2022-11-24T18:57:06.356Z,24.00
2022-11-24T19:02:12.299Z,24.30
2022-11-24T19:07:17.336Z,24.60
2022-11-24T19:12:20.418Z,24.80
2022-11-24T19:17:23.374Z,24.90
2022-11-24T19:22:27.799Z,25.10
2022-11-24T19:27:30.778Z,25.20
2022-11-24T19:32:33.786Z,25.30
2022-11-24T19:37:38.299Z,25.30
2022-11-24T19:42:41.262Z,25.40
2022-11-24T19:47:44.209Z,25.40
2022-11-24T19:52:49.215Z,25.40
2022-11-24T19:57:52.215Z,25.30
2022-11-24T20:02:55.258Z,25.30
2022-11-24T20:07:59.645Z,25.40
2022-11-24T20:13:02.710Z,25.40
2022-11-24T20:18:05.772Z,25.40
2022-11-24T20:23:10.320Z,25.30
2022-11-24T20:28:13.354Z,25.30
2022-11-24T20:33:16.386Z,25.30
2022-11-24T20:38:20.754Z,25.20
2022-11-24T20:43:23.724Z,25.20
2022-11-24T20:48:26.733Z,25.10
2022-11-24T20:53:31.209Z,25.10
2022-11-24T20:58:34.876Z,25.00
2022-11-24T21:03:43.078Z,24.90
2022-11-24T21:08:47.974Z,24.90
2022-11-24T21:13:51.853Z,24.80
2022-11-24T21:18:57.465Z,24.80
2022-11-24T21:24:01.897Z,24.80
2022-11-24T21:29:05.525Z,24.70
2022-11-24T21:34:09.260Z,24.70
2022-11-24T21:39:15.197Z,24.70
2022-11-24T21:44:18.274Z,24.60
2022-11-24T21:49:21.257Z,24.60
2022-11-24T21:54:25.729Z,24.50
2022-11-24T21:59:28.677Z,24.40
2022-11-24T22:04:31.689Z,24.40
2022-11-24T22:09:36.141Z,24.30
2022-11-24T22:14:40.632Z,24.20
2022-11-24T22:19:43.830Z,24.20
2022-11-24T22:24:48.173Z,24.10
2022-11-24T22:29:54.136Z,24.00
2022-11-24T22:34:57.344Z,24.00
2022-11-24T22:40:01.677Z,23.90
2022-11-24T22:45:05.337Z,23.80
2022-11-24T22:50:09.446Z,23.80
2022-11-24T22:55:13.885Z,23.70
2022-11-24T23:00:17.759Z,23.60
2022-11-24T23:05:21.059Z,23.60
2022-11-24T23:10:25.444Z,23.50
2022-11-24T23:15:28.448Z,23.50
2022-11-24T23:20:31.510Z,23.40
2022-11-24T23:25:36.193Z,23.40
2022-11-24T23:30:39.164Z,23.30
2022-11-24T23:35:42.182Z,23.20
2022-11-24T23:40:46.497Z,23.10
2022-11-24T23:45:49.523Z,23.10
2022-11-24T23:50:52.784Z,23.00
2022-11-24T23:55:57.494Z,23.00
